sensor_id;sensor_type;location;lat;lon;timestamp;temperature;humidity
7234;DHT22;3658;47.992;10.158;2023-05-07T00:01:05;20.50;48.40
7234;DHT22;3658;47.992;10.158;2023-05-07T00:03:33;20.50;48.60
7234;DHT22;3658;47.992;10.158;2023-05-07T00:06:00;20.50;48.40
7234;DHT22;3658;47.992;10.158;2023-05-07T00:08:27;20.50;48.40
7234;DHT22;3658;47.992;10.158;2023-05-07T00:10:53;20.50;48.30
7234;DHT22;3658;47.992;10.158;2023-05-07T00:13:20;20.50;48.30
7234;DHT22;3658;47.992;10.158;2023-05-07T00:15:47;20.50;48.30
7234;DHT22;3658;47.992;10.158;2023-05-07T00:18:14;20.50;48.30
7234;DHT22;3658;47.992;10.158;2023-05-07T00:20:42;20.50;48.30
7234;DHT22;3658;47.992;10.158;2023-05-07T00:23:09;20.50;48.30
7234;DHT22;3658;47.992;10.158;2023-05-07T00:25:36;20.50;48.20
7234;DHT22;3658;47.992;10.158;2023-05-07T00:28:03;20.50;48.20
7234;DHT22;3658;47.992;10.158;2023-05-07T00:30:29;20.50;48.20
7234;DHT22;3658;47.992;10.158;2023-05-07T00:32:56;20.50;48.20
7234;DHT22;3658;47.992;10.158;2023-05-07T00:35:23;20.50;48.30
7234;DHT22;3658;47.992;10.158;2023-05-07T00:37:51;20.50;48.30
7234;DHT22;3658;47.992;10.158;2023-05-07T00:40:18;20.50;48.30
7234;DHT22;3658;47.992;10.158;2023-05-07T00:42:45;20.50;48.30
7234;DHT22;3658;47.992;10.158;2023-05-07T00:45:12;20.50;48.30
7234;DHT22;3658;47.992;10.158;2023-05-07T00:47:39;20.50;48.30
7234;DHT22;3658;47.992;10.158;2023-05-07T00:50:07;20.50;48.30
7234;DHT22;3658;47.992;10.158;2023-05-07T00:52:37;20.50;48.30
7234;DHT22;3658;47.992;10.158;2023-05-07T00:55:07;20.50;48.30
7234;DHT22;3658;47.992;10.158;2023-05-07T00:57:36;20.50;48.30
7234;DHT22;3658;47.992;10.158;2023-05-07T01:00:04;20.50;48.30
7234;DHT22;3658;47.992;10.158;2023-05-07T01:02:31;20.50;48.30
7234;DHT22;3658;47.992;10.158;2023-05-07T01:05:00;20.50;48.20
7234;DHT22;3658;47.992;10.158;2023-05-07T01:07:27;20.50;48.20
7234;DHT22;3658;47.992;10.158;2023-05-07T01:09:54;20.50;48.30
7234;DHT22;3658;47.992;10.158;2023-05-07T01:12:23;20.50;48.20
7234;DHT22;3658;47.992;10.158;2023-05-07T01:14:51;20.50;48.30
7234;DHT22;3658;47.992;10.158;2023-05-07T01:17:18;20.50;48.30
7234;DHT22;3658;47.992;10.158;2023-05-07T01:19:45;20.50;48.30
7234;DHT22;3658;47.992;10.158;2023-05-07T01:22:15;20.50;48.30
7234;DHT22;3658;47.992;10.158;2023-05-07T01:24:44;20.50;48.30
7234;DHT22;3658;47.992;10.158;2023-05-07T01:27:11;20.50;48.30
7234;DHT22;3658;47.992;10.158;2023-05-07T01:29:38;20.50;48.30
7234;DHT22;3658;47.992;10.158;2023-05-07T01:32:05;20.50;48.30
7234;DHT22;3658;47.992;10.158;2023-05-07T01:34:33;20.50;48.30
7234;DHT22;3658;47.992;10.158;2023-05-07T01:37:01;20.50;48.30
7234;DHT22;3658;47.992;10.158;2023-05-07T01:39:29;20.50;48.20
7234;DHT22;3658;47.992;10.158;2023-05-07T01:41:59;20.50;48.90
7234;DHT22;3658;47.992;10.158;2023-05-07T01:44:26;20.50;48.20
7234;DHT22;3658;47.992;10.158;2023-05-07T01:46:53;20.50;48.20
7234;DHT22;3658;47.992;10.158;2023-05-07T01:49:20;20.50;48.20
7234;DHT22;3658;47.992;10.158;2023-05-07T01:51:48;20.50;48.20
7234;DHT22;3658;47.992;10.158;2023-05-07T01:54:15;20.50;48.20
7234;DHT22;3658;47.992;10.158;2023-05-07T01:56:42;20.50;48.20
7234;DHT22;3658;47.992;10.158;2023-05-07T01:59:10;20.50;48.30
7234;DHT22;3658;47.992;10.158;2023-05-07T02:01:38;20.50;48.30
7234;DHT22;3658;47.992;10.158;2023-05-07T02:04:05;20.50;48.30
7234;DHT22;3658;47.992;10.158;2023-05-07T02:06:32;20.50;48.30
7234;DHT22;3658;47.992;10.158;2023-05-07T02:08:59;20.50;48.20
7234;DHT22;3658;47.992;10.158;2023-05-07T02:11:26;20.50;48.20
7234;DHT22;3658;47.992;10.158;2023-05-07T02:13:52;20.50;48.30
7234;DHT22;3658;47.992;10.158;2023-05-07T02:16:20;20.50;48.30
7234;DHT22;3658;47.992;10.158;2023-05-07T02:18:48;20.50;48.30
7234;DHT22;3658;47.992;10.158;2023-05-07T02:21:15;20.50;48.20
7234;DHT22;3658;47.992;10.158;2023-05-07T02:23:42;20.50;48.20
7234;DHT22;3658;47.992;10.158;2023-05-07T02:26:10;20.50;48.30
7234;DHT22;3658;47.992;10.158;2023-05-07T02:28:37;20.50;48.30
7234;DHT22;3658;47.992;10.158;2023-05-07T02:31:04;20.50;48.20
7234;DHT22;3658;47.992;10.158;2023-05-07T02:33:32;20.50;48.20
7234;DHT22;3658;47.992;10.158;2023-05-07T02:36:06;20.50;48.30
7234;DHT22;3658;47.992;10.158;2023-05-07T02:38:33;20.50;48.20
7234;DHT22;3658;47.992;10.158;2023-05-07T02:41:00;20.50;48.20
7234;DHT22;3658;47.992;10.158;2023-05-07T02:43:27;20.50;48.20
7234;DHT22;3658;47.992;10.158;2023-05-07T02:46:00;20.50;48.20
7234;DHT22;3658;47.992;10.158;2023-05-07T02:48:28;20.50;48.20
7234;DHT22;3658;47.992;10.158;2023-05-07T02:50:56;20.50;48.20
7234;DHT22;3658;47.992;10.158;2023-05-07T02:53:23;20.50;48.20
7234;DHT22;3658;47.992;10.158;2023-05-07T02:55:51;20.50;48.20
7234;DHT22;3658;47.992;10.158;2023-05-07T02:58:18;20.50;48.20
7234;DHT22;3658;47.992;10.158;2023-05-07T03:00:45;20.50;48.20
7234;DHT22;3658;47.992;10.158;2023-05-07T03:03:12;20.50;48.20
7234;DHT22;3658;47.992;10.158;2023-05-07T03:05:38;20.50;48.60
7234;DHT22;3658;47.992;10.158;2023-05-07T03:08:07;20.50;48.20
7234;DHT22;3658;47.992;10.158;2023-05-07T03:10:34;20.50;48.20
7234;DHT22;3658;47.992;10.158;2023-05-07T03:13:01;20.50;48.20
7234;DHT22;3658;47.992;10.158;2023-05-07T03:15:28;20.50;48.20
7234;DHT22;3658;47.992;10.158;2023-05-07T03:17:55;20.50;48.20
7234;DHT22;3658;47.992;10.158;2023-05-07T03:20:22;20.50;48.20
7234;DHT22;3658;47.992;10.158;2023-05-07T03:22:48;20.50;48.20
7234;DHT22;3658;47.992;10.158;2023-05-07T03:25:17;20.50;48.20
7234;DHT22;3658;47.992;10.158;2023-05-07T03:27:43;20.50;48.20
7234;DHT22;3658;47.992;10.158;2023-05-07T03:30:11;20.50;48.20
7234;DHT22;3658;47.992;10.158;2023-05-07T03:32:38;20.50;48.20
7234;DHT22;3658;47.992;10.158;2023-05-07T03:35:05;20.50;48.20
7234;DHT22;3658;47.992;10.158;2023-05-07T03:37:32;20.50;48.10
7234;DHT22;3658;47.992;10.158;2023-05-07T03:39:59;20.50;48.20
7234;DHT22;3658;47.992;10.158;2023-05-07T03:42:28;20.50;48.20
7234;DHT22;3658;47.992;10.158;2023-05-07T03:44:55;20.50;48.20
7234;DHT22;3658;47.992;10.158;2023-05-07T03:47:22;20.50;48.40
7234;DHT22;3658;47.992;10.158;2023-05-07T03:49:49;20.50;48.20
7234;DHT22;3658;47.992;10.158;2023-05-07T03:52:18;20.50;48.20
7234;DHT22;3658;47.992;10.158;2023-05-07T03:54:49;20.50;48.20
7234;DHT22;3658;47.992;10.158;2023-05-07T03:57:16;20.50;48.20
7234;DHT22;3658;47.992;10.158;2023-05-07T03:59:44;20.50;48.30
7234;DHT22;3658;47.992;10.158;2023-05-07T04:02:12;20.50;48.30
7234;DHT22;3658;47.992;10.158;2023-05-07T04:04:41;20.40;48.10
7234;DHT22;3658;47.992;10.158;2023-05-07T04:07:07;20.50;48.10
7234;DHT22;3658;47.992;10.158;2023-05-07T04:09:35;20.50;48.00
7234;DHT22;3658;47.992;10.158;2023-05-07T04:12:02;20.40;47.90
7234;DHT22;3658;47.992;10.158;2023-05-07T04:14:29;20.40;47.80
7234;DHT22;3658;47.992;10.158;2023-05-07T04:16:58;20.40;47.80
7234;DHT22;3658;47.992;10.158;2023-05-07T04:19:25;20.40;47.80
7234;DHT22;3658;47.992;10.158;2023-05-07T04:21:52;20.40;47.80
7234;DHT22;3658;47.992;10.158;2023-05-07T04:24:19;20.40;47.70
7234;DHT22;3658;47.992;10.158;2023-05-07T04:26:45;20.40;47.70
7234;DHT22;3658;47.992;10.158;2023-05-07T04:29:12;20.40;47.70
7234;DHT22;3658;47.992;10.158;2023-05-07T04:31:39;20.40;47.70
7234;DHT22;3658;47.992;10.158;2023-05-07T04:34:07;20.40;47.60
7234;DHT22;3658;47.992;10.158;2023-05-07T04:36:34;20.40;47.60
7234;DHT22;3658;47.992;10.158;2023-05-07T04:39:02;20.40;47.60
7234;DHT22;3658;47.992;10.158;2023-05-07T04:41:29;20.40;47.50
7234;DHT22;3658;47.992;10.158;2023-05-07T04:43:56;20.40;47.50
7234;DHT22;3658;47.992;10.158;2023-05-07T04:46:24;20.40;47.50
7234;DHT22;3658;47.992;10.158;2023-05-07T04:48:51;20.40;47.40
7234;DHT22;3658;47.992;10.158;2023-05-07T04:51:19;20.40;47.40
7234;DHT22;3658;47.992;10.158;2023-05-07T04:53:46;20.40;47.40
7234;DHT22;3658;47.992;10.158;2023-05-07T04:56:12;20.40;47.40
7234;DHT22;3658;47.992;10.158;2023-05-07T04:58:39;20.40;47.40
7234;DHT22;3658;47.992;10.158;2023-05-07T05:01:06;20.40;47.40
7234;DHT22;3658;47.992;10.158;2023-05-07T05:03:33;20.40;47.40
7234;DHT22;3658;47.992;10.158;2023-05-07T05:06:00;20.40;47.40
7234;DHT22;3658;47.992;10.158;2023-05-07T05:08:28;20.40;47.40
7234;DHT22;3658;47.992;10.158;2023-05-07T05:10:56;20.40;47.30
7234;DHT22;3658;47.992;10.158;2023-05-07T05:13:22;20.40;47.40
7234;DHT22;3658;47.992;10.158;2023-05-07T05:15:49;20.40;47.30
7234;DHT22;3658;47.992;10.158;2023-05-07T05:18:16;20.40;47.30
7234;DHT22;3658;47.992;10.158;2023-05-07T05:20:43;20.40;47.30
7234;DHT22;3658;47.992;10.158;2023-05-07T05:23:10;20.40;47.30
7234;DHT22;3658;47.992;10.158;2023-05-07T05:25:39;20.40;47.70
7234;DHT22;3658;47.992;10.158;2023-05-07T05:28:07;20.40;47.30
7234;DHT22;3658;47.992;10.158;2023-05-07T05:30:34;20.40;47.30
7234;DHT22;3658;47.992;10.158;2023-05-07T05:33:01;20.40;47.20
7234;DHT22;3658;47.992;10.158;2023-05-07T05:35:29;20.40;47.20
7234;DHT22;3658;47.992;10.158;2023-05-07T05:37:55;20.40;47.20
7234;DHT22;3658;47.992;10.158;2023-05-07T05:40:22;20.40;47.20
7234;DHT22;3658;47.992;10.158;2023-05-07T05:42:50;20.40;47.20
7234;DHT22;3658;47.992;10.158;2023-05-07T05:45:17;20.40;47.20
7234;DHT22;3658;47.992;10.158;2023-05-07T05:47:44;20.40;47.20
7234;DHT22;3658;47.992;10.158;2023-05-07T05:50:11;20.40;47.20
7234;DHT22;3658;47.992;10.158;2023-05-07T05:52:38;20.40;47.20
7234;DHT22;3658;47.992;10.158;2023-05-07T05:55:07;20.40;47.20
7234;DHT22;3658;47.992;10.158;2023-05-07T05:57:33;20.40;47.10
7234;DHT22;3658;47.992;10.158;2023-05-07T06:00:02;20.40;47.20
7234;DHT22;3658;47.992;10.158;2023-05-07T06:02:29;20.40;47.10
7234;DHT22;3658;47.992;10.158;2023-05-07T06:04:56;20.40;47.20
7234;DHT22;3658;47.992;10.158;2023-05-07T06:07:23;20.40;47.10
7234;DHT22;3658;47.992;10.158;2023-05-07T06:09:49;20.40;47.10
7234;DHT22;3658;47.992;10.158;2023-05-07T06:12:16;20.40;47.10
7234;DHT22;3658;47.992;10.158;2023-05-07T06:14:43;20.40;47.10
7234;DHT22;3658;47.992;10.158;2023-05-07T06:17:11;20.40;47.10
7234;DHT22;3658;47.992;10.158;2023-05-07T06:19:38;20.40;47.10
7234;DHT22;3658;47.992;10.158;2023-05-07T06:22:05;20.40;47.10
7234;DHT22;3658;47.992;10.158;2023-05-07T06:24:31;20.40;47.10
7234;DHT22;3658;47.992;10.158;2023-05-07T06:26:58;20.40;47.10
7234;DHT22;3658;47.992;10.158;2023-05-07T06:29:25;20.40;47.10
7234;DHT22;3658;47.992;10.158;2023-05-07T06:31:53;20.40;47.10
7234;DHT22;3658;47.992;10.158;2023-05-07T06:34:21;20.40;47.10
7234;DHT22;3658;47.992;10.158;2023-05-07T06:36:48;20.30;46.90
7234;DHT22;3658;47.992;10.158;2023-05-07T06:39:14;20.40;47.10
7234;DHT22;3658;47.992;10.158;2023-05-07T06:41:41;20.40;47.10
7234;DHT22;3658;47.992;10.158;2023-05-07T06:44:08;20.40;47.10
7234;DHT22;3658;47.992;10.158;2023-05-07T06:46:34;20.40;47.40
7234;DHT22;3658;47.992;10.158;2023-05-07T06:49:01;20.40;49.70
7234;DHT22;3658;47.992;10.158;2023-05-07T06:51:29;20.50;50.50
7234;DHT22;3658;47.992;10.158;2023-05-07T06:53:56;20.50;50.80
7234;DHT22;3658;47.992;10.158;2023-05-07T06:56:23;20.50;51.60
7234;DHT22;3658;47.992;10.158;2023-05-07T06:58:50;20.50;51.00
7234;DHT22;3658;47.992;10.158;2023-05-07T07:01:17;20.50;51.10
7234;DHT22;3658;47.992;10.158;2023-05-07T07:03:44;20.50;51.30
7234;DHT22;3658;47.992;10.158;2023-05-07T07:06:10;20.50;51.30
7234;DHT22;3658;47.992;10.158;2023-05-07T07:08:39;20.50;51.10
7234;DHT22;3658;47.992;10.158;2023-05-07T07:11:06;20.50;51.20
7234;DHT22;3658;47.992;10.158;2023-05-07T07:13:32;20.50;51.00
7234;DHT22;3658;47.992;10.158;2023-05-07T07:16:00;20.50;51.00
7234;DHT22;3658;47.992;10.158;2023-05-07T07:18:26;20.50;50.80
7234;DHT22;3658;47.992;10.158;2023-05-07T07:20:53;20.50;50.70
7234;DHT22;3658;47.992;10.158;2023-05-07T07:23:20;20.50;50.60
7234;DHT22;3658;47.992;10.158;2023-05-07T07:25:49;20.50;50.50
7234;DHT22;3658;47.992;10.158;2023-05-07T07:28:15;20.50;50.50
7234;DHT22;3658;47.992;10.158;2023-05-07T07:30:42;20.50;50.50
7234;DHT22;3658;47.992;10.158;2023-05-07T07:33:09;20.50;50.40
7234;DHT22;3658;47.992;10.158;2023-05-07T07:35:36;20.50;50.30
7234;DHT22;3658;47.992;10.158;2023-05-07T07:38:03;20.50;50.30
7234;DHT22;3658;47.992;10.158;2023-05-07T07:40:30;20.50;50.30
7234;DHT22;3658;47.992;10.158;2023-05-07T07:42:58;20.50;50.20
7234;DHT22;3658;47.992;10.158;2023-05-07T07:45:26;20.50;50.30
7234;DHT22;3658;47.992;10.158;2023-05-07T07:47:53;20.50;50.20
7234;DHT22;3658;47.992;10.158;2023-05-07T07:50:20;20.50;50.20
7234;DHT22;3658;47.992;10.158;2023-05-07T07:52:48;20.50;50.10
7234;DHT22;3658;47.992;10.158;2023-05-07T07:55:15;20.50;50.10
7234;DHT22;3658;47.992;10.158;2023-05-07T07:57:46;20.50;50.10
7234;DHT22;3658;47.992;10.158;2023-05-07T08:00:16;20.50;50.10
7234;DHT22;3658;47.992;10.158;2023-05-07T08:02:44;20.50;50.00
7234;DHT22;3658;47.992;10.158;2023-05-07T08:05:11;20.50;50.00
7234;DHT22;3658;47.992;10.158;2023-05-07T08:07:37;20.50;50.00
7234;DHT22;3658;47.992;10.158;2023-05-07T08:10:04;20.50;50.00
7234;DHT22;3658;47.992;10.158;2023-05-07T08:12:31;20.50;50.00
7234;DHT22;3658;47.992;10.158;2023-05-07T08:14:58;20.50;50.00
7234;DHT22;3658;47.992;10.158;2023-05-07T08:17:26;20.50;50.00
7234;DHT22;3658;47.992;10.158;2023-05-07T08:19:53;20.50;50.00
7234;DHT22;3658;47.992;10.158;2023-05-07T08:22:19;20.50;49.90
7234;DHT22;3658;47.992;10.158;2023-05-07T08:24:47;20.50;49.80
7234;DHT22;3658;47.992;10.158;2023-05-07T08:27:14;20.50;49.80
7234;DHT22;3658;47.992;10.158;2023-05-07T08:29:41;20.50;49.70
7234;DHT22;3658;47.992;10.158;2023-05-07T08:32:07;20.50;49.80
7234;DHT22;3658;47.992;10.158;2023-05-07T08:34:35;20.50;49.80
7234;DHT22;3658;47.992;10.158;2023-05-07T08:37:02;20.50;49.80
7234;DHT22;3658;47.992;10.158;2023-05-07T08:39:29;20.50;49.80
7234;DHT22;3658;47.992;10.158;2023-05-07T08:41:56;20.50;49.80
7234;DHT22;3658;47.992;10.158;2023-05-07T08:44:28;20.50;49.80
7234;DHT22;3658;47.992;10.158;2023-05-07T08:46:56;20.50;49.70
7234;DHT22;3658;47.992;10.158;2023-05-07T08:49:24;20.50;49.70
7234;DHT22;3658;47.992;10.158;2023-05-07T08:51:53;20.50;49.70
7234;DHT22;3658;47.992;10.158;2023-05-07T08:54:21;20.50;49.50
7234;DHT22;3658;47.992;10.158;2023-05-07T08:56:48;20.50;49.40
7234;DHT22;3658;47.992;10.158;2023-05-07T08:59:15;20.50;49.40
7234;DHT22;3658;47.992;10.158;2023-05-07T09:01:42;20.50;49.30
7234;DHT22;3658;47.992;10.158;2023-05-07T09:04:09;20.50;49.30
7234;DHT22;3658;47.992;10.158;2023-05-07T09:06:36;20.50;49.20
7234;DHT22;3658;47.992;10.158;2023-05-07T09:09:04;20.50;49.80
7234;DHT22;3658;47.992;10.158;2023-05-07T09:11:31;20.50;49.20
7234;DHT22;3658;47.992;10.158;2023-05-07T09:13:58;20.50;49.30
7234;DHT22;3658;47.992;10.158;2023-05-07T09:16:28;20.50;49.30
7234;DHT22;3658;47.992;10.158;2023-05-07T09:18:57;20.50;49.40
7234;DHT22;3658;47.992;10.158;2023-05-07T09:21:24;20.50;49.40
7234;DHT22;3658;47.992;10.158;2023-05-07T09:23:51;20.50;49.40
7234;DHT22;3658;47.992;10.158;2023-05-07T09:26:21;20.50;49.40
7234;DHT22;3658;47.992;10.158;2023-05-07T09:28:48;20.50;49.20
7234;DHT22;3658;47.992;10.158;2023-05-07T09:31:14;20.50;49.10
7234;DHT22;3658;47.992;10.158;2023-05-07T09:33:41;20.50;49.00
7234;DHT22;3658;47.992;10.158;2023-05-07T09:36:09;20.50;48.90
7234;DHT22;3658;47.992;10.158;2023-05-07T09:38:37;20.50;48.90
7234;DHT22;3658;47.992;10.158;2023-05-07T09:41:05;20.50;48.90
7234;DHT22;3658;47.992;10.158;2023-05-07T09:43:34;20.50;48.90
7234;DHT22;3658;47.992;10.158;2023-05-07T09:46:03;20.50;48.90
7234;DHT22;3658;47.992;10.158;2023-05-07T09:48:34;20.50;48.90
7234;DHT22;3658;47.992;10.158;2023-05-07T09:51:06;20.50;48.90
7234;DHT22;3658;47.992;10.158;2023-05-07T09:53:37;20.50;48.90
7234;DHT22;3658;47.992;10.158;2023-05-07T09:56:05;20.50;48.90
7234;DHT22;3658;47.992;10.158;2023-05-07T09:58:37;20.50;48.90
7234;DHT22;3658;47.992;10.158;2023-05-07T10:01:05;20.50;48.90
7234;DHT22;3658;47.992;10.158;2023-05-07T10:03:33;20.50;49.00
7234;DHT22;3658;47.992;10.158;2023-05-07T10:06:02;20.50;49.00
7234;DHT22;3658;47.992;10.158;2023-05-07T10:08:30;20.50;49.00
7234;DHT22;3658;47.992;10.158;2023-05-07T10:10:57;20.50;49.10
7234;DHT22;3658;47.992;10.158;2023-05-07T10:13:24;20.50;48.90
7234;DHT22;3658;47.992;10.158;2023-05-07T10:15:52;20.50;48.90
7234;DHT22;3658;47.992;10.158;2023-05-07T10:18:21;20.50;48.90
7234;DHT22;3658;47.992;10.158;2023-05-07T10:20:54;20.50;49.40
7234;DHT22;3658;47.992;10.158;2023-05-07T10:23:26;20.50;48.80
7234;DHT22;3658;47.992;10.158;2023-05-07T10:25:54;20.50;48.80
7234;DHT22;3658;47.992;10.158;2023-05-07T10:28:24;20.50;48.80
7234;DHT22;3658;47.992;10.158;2023-05-07T10:31:01;20.50;48.80
7234;DHT22;3658;47.992;10.158;2023-05-07T10:33:31;20.50;48.80
7234;DHT22;3658;47.992;10.158;2023-05-07T10:36:00;20.50;48.90
7234;DHT22;3658;47.992;10.158;2023-05-07T10:38:30;20.50;49.00
7234;DHT22;3658;47.992;10.158;2023-05-07T10:40:56;20.50;49.00
7234;DHT22;3658;47.992;10.158;2023-05-07T10:43:24;20.50;49.10
7234;DHT22;3658;47.992;10.158;2023-05-07T10:46:13;20.50;49.10
7234;DHT22;3658;47.992;10.158;2023-05-07T10:49:08;20.50;49.00
7234;DHT22;3658;47.992;10.158;2023-05-07T10:51:37;20.50;48.90
7234;DHT22;3658;47.992;10.158;2023-05-07T10:54:20;20.50;48.80
7234;DHT22;3658;47.992;10.158;2023-05-07T10:56:47;20.50;48.80
7234;DHT22;3658;47.992;10.158;2023-05-07T10:59:35;20.50;48.80
7234;DHT22;3658;47.992;10.158;2023-05-07T11:02:08;20.50;48.80
7234;DHT22;3658;47.992;10.158;2023-05-07T11:04:37;20.50;48.70
7234;DHT22;3658;47.992;10.158;2023-05-07T11:07:25;20.50;48.70
7234;DHT22;3658;47.992;10.158;2023-05-07T11:10:00;20.50;48.80
7234;DHT22;3658;47.992;10.158;2023-05-07T11:12:52;20.50;48.70
7234;DHT22;3658;47.992;10.158;2023-05-07T11:15:42;20.50;48.80
7234;DHT22;3658;47.992;10.158;2023-05-07T11:18:12;20.50;48.80
7234;DHT22;3658;47.992;10.158;2023-05-07T11:20:50;20.50;48.80
7234;DHT22;3658;47.992;10.158;2023-05-07T11:26:43;20.50;48.90
7234;DHT22;3658;47.992;10.158;2023-05-07T11:29:17;20.50;48.80
7234;DHT22;3658;47.992;10.158;2023-05-07T11:31:48;20.50;48.70
7234;DHT22;3658;47.992;10.158;2023-05-07T11:34:20;20.50;48.70
7234;DHT22;3658;47.992;10.158;2023-05-07T11:36:48;20.50;48.70
7234;DHT22;3658;47.992;10.158;2023-05-07T11:39:26;20.50;48.70
7234;DHT22;3658;47.992;10.158;2023-05-07T11:41:53;20.50;48.70
7234;DHT22;3658;47.992;10.158;2023-05-07T11:44:20;20.50;48.70
7234;DHT22;3658;47.992;10.158;2023-05-07T11:46:47;20.50;48.70
7234;DHT22;3658;47.992;10.158;2023-05-07T11:49:14;20.50;48.70
7234;DHT22;3658;47.992;10.158;2023-05-07T11:51:43;20.50;48.70
7234;DHT22;3658;47.992;10.158;2023-05-07T11:54:12;20.50;48.70
7234;DHT22;3658;47.992;10.158;2023-05-07T11:56:41;20.50;48.70
7234;DHT22;3658;47.992;10.158;2023-05-07T11:59:08;20.50;48.70
7234;DHT22;3658;47.992;10.158;2023-05-07T12:01:35;20.50;48.70
7234;DHT22;3658;47.992;10.158;2023-05-07T12:04:03;20.50;48.70
7234;DHT22;3658;47.992;10.158;2023-05-07T12:06:30;20.50;48.70
7234;DHT22;3658;47.992;10.158;2023-05-07T12:08:58;20.50;48.70
7234;DHT22;3658;47.992;10.158;2023-05-07T12:11:26;20.50;48.70
7234;DHT22;3658;47.992;10.158;2023-05-07T12:13:54;20.50;48.70
7234;DHT22;3658;47.992;10.158;2023-05-07T12:16:21;20.50;48.70
7234;DHT22;3658;47.992;10.158;2023-05-07T12:18:48;20.50;48.70
7234;DHT22;3658;47.992;10.158;2023-05-07T12:21:15;20.50;48.70
7234;DHT22;3658;47.992;10.158;2023-05-07T12:23:43;20.50;48.70
7234;DHT22;3658;47.992;10.158;2023-05-07T12:26:11;20.50;48.70
7234;DHT22;3658;47.992;10.158;2023-05-07T12:28:38;20.50;48.70
7234;DHT22;3658;47.992;10.158;2023-05-07T12:31:06;20.50;48.60
7234;DHT22;3658;47.992;10.158;2023-05-07T12:33:34;20.50;48.70
7234;DHT22;3658;47.992;10.158;2023-05-07T12:36:05;20.50;48.60
7234;DHT22;3658;47.992;10.158;2023-05-07T12:38:37;20.50;48.70
7234;DHT22;3658;47.992;10.158;2023-05-07T12:41:06;20.50;48.60
7234;DHT22;3658;47.992;10.158;2023-05-07T12:43:34;20.50;48.60
7234;DHT22;3658;47.992;10.158;2023-05-07T12:46:03;20.50;48.60
7234;DHT22;3658;47.992;10.158;2023-05-07T12:48:30;20.50;48.60
7234;DHT22;3658;47.992;10.158;2023-05-07T12:50:58;20.50;48.60
7234;DHT22;3658;47.992;10.158;2023-05-07T12:53:26;20.50;48.70
7234;DHT22;3658;47.992;10.158;2023-05-07T12:55:55;20.50;48.60
7234;DHT22;3658;47.992;10.158;2023-05-07T12:58:24;20.50;48.60
7234;DHT22;3658;47.992;10.158;2023-05-07T13:00:53;20.60;48.70
7234;DHT22;3658;47.992;10.158;2023-05-07T13:03:25;20.50;49.20
7234;DHT22;3658;47.992;10.158;2023-05-07T13:05:54;20.50;48.60
7234;DHT22;3658;47.992;10.158;2023-05-07T13:08:28;20.50;48.60
7234;DHT22;3658;47.992;10.158;2023-05-07T13:10:56;20.60;48.70
7234;DHT22;3658;47.992;10.158;2023-05-07T13:13:23;20.60;48.60
7234;DHT22;3658;47.992;10.158;2023-05-07T13:15:50;20.60;48.70
7234;DHT22;3658;47.992;10.158;2023-05-07T13:18:18;20.60;48.60
7234;DHT22;3658;47.992;10.158;2023-05-07T13:20:45;20.60;48.60
7234;DHT22;3658;47.992;10.158;2023-05-07T13:23:12;20.60;48.60
7234;DHT22;3658;47.992;10.158;2023-05-07T13:25:39;20.60;48.60
7234;DHT22;3658;47.992;10.158;2023-05-07T13:28:06;20.60;48.60
7234;DHT22;3658;47.992;10.158;2023-05-07T13:30:32;20.60;48.70
7234;DHT22;3658;47.992;10.158;2023-05-07T13:33:00;20.60;48.60
7234;DHT22;3658;47.992;10.158;2023-05-07T13:35:28;20.60;48.60
7234;DHT22;3658;47.992;10.158;2023-05-07T13:37:55;20.60;48.70
7234;DHT22;3658;47.992;10.158;2023-05-07T13:40:22;20.60;48.60
7234;DHT22;3658;47.992;10.158;2023-05-07T13:42:49;20.60;48.60
7234;DHT22;3658;47.992;10.158;2023-05-07T13:45:16;20.60;48.60
7234;DHT22;3658;47.992;10.158;2023-05-07T13:47:43;20.60;48.60
7234;DHT22;3658;47.992;10.158;2023-05-07T13:50:11;20.60;48.60
7234;DHT22;3658;47.992;10.158;2023-05-07T13:52:40;20.60;48.60
7234;DHT22;3658;47.992;10.158;2023-05-07T13:55:08;20.60;48.60
7234;DHT22;3658;47.992;10.158;2023-05-07T13:57:35;20.60;48.60
7234;DHT22;3658;47.992;10.158;2023-05-07T14:00:03;20.60;48.60
7234;DHT22;3658;47.992;10.158;2023-05-07T14:02:30;20.60;48.60
7234;DHT22;3658;47.992;10.158;2023-05-07T14:04:57;20.60;48.50
7234;DHT22;3658;47.992;10.158;2023-05-07T14:07:24;20.60;48.60
7234;DHT22;3658;47.992;10.158;2023-05-07T14:09:52;20.60;48.50
7234;DHT22;3658;47.992;10.158;2023-05-07T14:12:19;20.60;48.60
7234;DHT22;3658;47.992;10.158;2023-05-07T14:14:49;20.60;48.60
7234;DHT22;3658;47.992;10.158;2023-05-07T14:17:16;20.60;48.60
7234;DHT22;3658;47.992;10.158;2023-05-07T14:19:43;20.60;48.60
7234;DHT22;3658;47.992;10.158;2023-05-07T14:22:10;20.60;48.50
7234;DHT22;3658;47.992;10.158;2023-05-07T14:24:37;20.60;48.50
7234;DHT22;3658;47.992;10.158;2023-05-07T14:27:06;20.60;48.50
7234;DHT22;3658;47.992;10.158;2023-05-07T14:29:33;20.60;48.50
7234;DHT22;3658;47.992;10.158;2023-05-07T14:32:01;20.60;48.50
7234;DHT22;3658;47.992;10.158;2023-05-07T14:34:27;20.60;48.50
7234;DHT22;3658;47.992;10.158;2023-05-07T14:36:54;20.60;48.50
7234;DHT22;3658;47.992;10.158;2023-05-07T14:39:21;20.60;48.50
7234;DHT22;3658;47.992;10.158;2023-05-07T14:41:48;20.60;48.50
7234;DHT22;3658;47.992;10.158;2023-05-07T14:44:16;20.60;48.50
7234;DHT22;3658;47.992;10.158;2023-05-07T14:46:43;20.60;48.50
7234;DHT22;3658;47.992;10.158;2023-05-07T14:49:10;20.60;48.50
7234;DHT22;3658;47.992;10.158;2023-05-07T14:51:42;20.60;48.50
7234;DHT22;3658;47.992;10.158;2023-05-07T14:54:09;20.60;49.10
7234;DHT22;3658;47.992;10.158;2023-05-07T14:56:36;20.60;48.50
7234;DHT22;3658;47.992;10.158;2023-05-07T14:59:03;20.60;48.50
7234;DHT22;3658;47.992;10.158;2023-05-07T15:01:32;20.60;48.50
7234;DHT22;3658;47.992;10.158;2023-05-07T15:03:59;20.60;48.60
7234;DHT22;3658;47.992;10.158;2023-05-07T15:06:26;20.60;48.50
7234;DHT22;3658;47.992;10.158;2023-05-07T15:08:53;20.60;49.20
7234;DHT22;3658;47.992;10.158;2023-05-07T15:11:23;20.60;48.60
7234;DHT22;3658;47.992;10.158;2023-05-07T15:13:52;20.60;48.70
7234;DHT22;3658;47.992;10.158;2023-05-07T15:16:22;20.60;48.80
7234;DHT22;3658;47.992;10.158;2023-05-07T15:18:52;20.60;48.70
7234;DHT22;3658;47.992;10.158;2023-05-07T15:21:19;20.60;48.80
7234;DHT22;3658;47.992;10.158;2023-05-07T15:23:45;20.60;48.90
7234;DHT22;3658;47.992;10.158;2023-05-07T15:26:12;20.60;49.10
7234;DHT22;3658;47.992;10.158;2023-05-07T15:28:39;20.60;49.30
7234;DHT22;3658;47.992;10.158;2023-05-07T15:31:06;20.60;49.50
7234;DHT22;3658;47.992;10.158;2023-05-07T15:33:34;20.60;49.60
7234;DHT22;3658;47.992;10.158;2023-05-07T15:36:04;20.70;49.70
7234;DHT22;3658;47.992;10.158;2023-05-07T15:38:31;20.70;49.70
7234;DHT22;3658;47.992;10.158;2023-05-07T15:40:58;20.70;49.70
7234;DHT22;3658;47.992;10.158;2023-05-07T15:43:25;20.70;49.90
7234;DHT22;3658;47.992;10.158;2023-05-07T15:45:51;20.70;50.00
7234;DHT22;3658;47.992;10.158;2023-05-07T15:48:18;20.70;50.20
7234;DHT22;3658;47.992;10.158;2023-05-07T15:50:45;20.70;50.20
7234;DHT22;3658;47.992;10.158;2023-05-07T15:53:14;20.70;50.10